EGBB/BHX METAR and TAF weather

Enter ICAO airport designator
Station Type Date Time Source
EGBB METAR 2021/04/13 21:50 UTC NOAA

EGBB 132150Z 33002KT CAVOK 09/M01 Q1032


Station Type Date Time Source
EGBB Decoded METAR 2021/04/13 21:50 UTC NOAA

Birmingham / Airport, United Kingdom (EGBB) 52-27N 001-44W 0M
Apr 13, 2021 - 05:50 PM EDT / 2021.04.13 2150 UTC
Wind: from the NNW (330 degrees) at 2 MPH (2 KT):0
Visibility: greater than 7 mile(s):0
Temperature: 48 F (9 C)
Dew Point: 30 F (-1 C)
Relative Humidity: 49%
Pressure (altimeter): 30.47 in. Hg (1032 hPa)
ob: EGBB 132150Z 33002KT CAVOK 09/M01 Q1032
cycle: 22

Station Type Date Time Source
EGBB TAF 2021/04/13 18:09 UTC NOAA

TAF EGBB 131655Z 1318/1418 VRB03KT 9999 FEW040 PROB30 1404/1408 8000
BECMG 1409/1412 07010KT

Example: see airport list